Flight Track Log - Related Links

Times and Time Zones

All times are in EDT time to prevent confusion due to time zone crossing. See the CTL16 flight status page for this flight to view local times or setup timezone preferences in your user account.

Time Position Orientation Groundspeed Altitude Reporting Facility
EDT Latitude Longitude Course Direction KTS MPH feet Rate Location/Type
Thu 08:45:31 PM 39.4000 -84.4500 85° East 129 148 2,600  Level Cincinnati TRACON
Thu 08:45:52 PM 39.4003 -84.4458 85° East 130 150 3,000 955 Climbing Indianapolis Center
Thu 08:46:59 PM 39.4267 -84.4061 49° Northeast 135 155 4,000 918 Climbing Indianapolis Center
Thu 08:47:17 PM 39.4347 -84.3917 54° Northeast 136 157 4,300 900 Climbing Indianapolis Center
Thu 08:47:59 PM 39.4550 -84.3667 44° Northeast 138 159 4,900 885 Climbing Indianapolis Center
Thu 08:48:18 PM 39.4611 -84.3556 55° Northeast 136 157 5,200 984 Climbing Indianapolis Center
Thu 08:49:00 PM 39.4825 -84.3353 36° Northeast 138 159 5,900 885 Climbing Indianapolis Center
Thu 08:49:19 PM 39.4903 -84.3239 48° Northeast 135 155 6,100 689 Climbing Indianapolis Center
Thu 08:50:01 PM 39.5083 -84.3008 45° Northeast 135 155 6,600 774 Climbing Indianapolis Center
Thu 08:50:21 PM 39.5175 -84.2883 46° Northeast 136 157 6,900 358 Climbing Indianapolis Center
Thu 08:51:08 PM 39.5411 -84.2592 44° Northeast 147 169 7,000 118 Climbing Indianapolis Center
Thu 08:52:03 PM 39.5736 -84.2203 43° Northeast 174 200 7,100  Climbing Indianapolis Center
Thu 08:52:24 PM 39.5842 -84.2053 48° Northeast 167 192 7,000  Descending Indianapolis Center
Thu 08:53:10 PM 39.6153 -84.1689 42° Northeast 187 215 7,100 98 Climbing Indianapolis Center
Thu 08:53:25 PM 39.6225 -84.1594 45° Northeast 181 208 7,100  Level Indianapolis Center
Thu 08:54:04 PM 39.6500 -84.1272 42° Northeast 185 213 7,100  Level Indianapolis Center
Thu 08:54:26 PM 39.6608 -84.1147 42° Northeast 184 212 7,100 -82 Level Indianapolis Center
Thu 08:55:17 PM 39.6964 -84.0708 44° Northeast 189 217 7,000 -54 Descending Indianapolis Center
Thu 08:56:18 PM 39.7353 -84.0272 41° Northeast 185 213 7,000 55 Level Indianapolis Center
Thu 08:57:07 PM 39.7633 -83.9900 46° Northeast 181 208 7,100 82 Climbing Indianapolis Center
Thu 08:57:31 PM 39.7764 -83.9778 36° Northeast 183 211 7,100  Level Indianapolis Center
Thu 08:58:07 PM 39.8064 -83.9467 39° Northeast 185 213 7,100  Level Indianapolis Center
Thu 08:58:32 PM 39.8161 -83.9333 46° Northeast 184 212 7,100  Level Indianapolis Center
Thu 08:59:08 PM 39.8453 -83.9028 39° Northeast 187 215 7,100  Level Indianapolis Center
Thu 08:59:33 PM 39.8553 -83.8869 51° Northeast 186 214 7,100  Level Indianapolis Center
Thu 09:00:08 PM 39.8808 -83.8503 48° Northeast 187 215 7,100 -97 Level Indianapolis Center
Thu 09:00:35 PM 39.8919 -83.8381 40° Northeast 186 214 7,000  Descending Indianapolis Center
Thu 09:01:15 PM 39.9222 -83.8011 43° Northeast 189 217 7,100 98 Climbing Indianapolis Center
Thu 09:01:36 PM 39.9308 -83.7908 42° Northeast 188 216 7,100  Level Indianapolis Center
Thu 09:02:10 PM 39.9567 -83.7592 43° Northeast 188 216 7,100 -98 Level Indianapolis Center
Thu 09:02:37 PM 39.9703 -83.7433 42° Northeast 189 217 7,000 -100 Descending Indianapolis Center
Thu 09:03:10 PM 39.9978 -83.7156 38° Northeast 180 207 7,000  Level Indianapolis Center
Thu 09:03:39 PM 40.0097 -83.6997 45° Northeast 186 214 7,000  Level Indianapolis Center
Thu 09:04:11 PM 40.0350 -83.6656 46° Northeast 194 223 7,000  Level Indianapolis Center
Thu 09:04:40 PM 40.0478 -83.6500 43° Northeast 188 216 7,000  Level Indianapolis Center
Thu 09:05:18 PM 40.0786 -83.6139 42° Northeast 187 215 7,000 98 Level Indianapolis Center
Thu 09:05:41 PM 40.0936 -83.5950 44° Northeast 189 217 7,100 100 Climbing Indianapolis Center
Thu 09:06:18 PM 40.1156 -83.5667 45° Northeast 187 215 7,100  Level Indianapolis Center
Thu 09:06:43 PM 40.1308 -83.5472 44° Northeast 187 215 7,100 -98 Level Indianapolis Center
Thu 09:07:19 PM 40.1525 -83.5194 44° Northeast 187 215 7,000 -197 Descending Indianapolis Center
Thu 09:07:44 PM 40.1683 -83.4986 45° Northeast 187 215 6,900  Descending Indianapolis Center
Thu 09:08:26 PM 40.1939 -83.4672 43° Northeast 185 213 7,000  Climbing Indianapolis Center
Thu 09:08:45 PM 40.2061 -83.4525 43° Northeast 185 213 6,900  Descending Indianapolis Center
Thu 09:09:26 PM 40.2308 -83.4197 45° Northeast 182 209 7,000 98 Climbing Indianapolis Center
Thu 09:09:46 PM 40.2439 -83.4061 39° Northeast 185 213 7,000 73 Level Indianapolis Center
Thu 09:10:48 PM 40.2814 -83.3592 44° Northeast 184 212 7,100  Climbing Indianapolis Center
Thu 09:11:34 PM 40.3089 -83.3253 43° Northeast 181 208 7,000  Descending Indianapolis Center
Thu 09:11:49 PM 40.3186 -83.3136 42° Northeast 182 209 7,100 100 Climbing Indianapolis Center
Thu 09:12:34 PM 40.3456 -83.2778 45° Northeast 184 212 7,100  Level Indianapolis Center
Thu 09:12:50 PM 40.3558 -83.2667 39° Northeast 183 211 7,100 -77 Level Indianapolis Center
Thu 09:13:52 PM 40.3911 -83.2189 46° Northeast 180 207 7,000 -49 Descending Indianapolis Center
Thu 09:14:53 PM 40.4278 -83.1722 44° Northeast 181 208 7,000  Level Indianapolis Center
Thu 09:15:54 PM 40.4625 -83.1253 46° Northeast 178 205 7,000  Level Indianapolis Center
Thu 09:16:55 PM 40.4992 -83.0794 44° Northeast 179 206 7,000  Level Indianapolis Center
Thu 09:17:57 PM 40.5367 -83.0328 43° Northeast 179 206 7,000  Level Indianapolis Center
Thu 09:18:58 PM 40.5722 -82.9853 45° Northeast 180 207 7,000  Level Indianapolis Center
Thu 09:19:59 PM 40.6064 -82.9347 48° Northeast 182 209 7,000 -49 Level Indianapolis Center
Thu 09:21:01 PM 40.6389 -82.8836 50° Northeast 180 207 6,900  Descending Indianapolis Center
Thu 09:22:02 PM 40.6711 -82.8331 50° Northeast 179 206 7,000  Climbing Indianapolis Center
Thu 09:23:03 PM 40.7050 -82.7833 48° Northeast 179 206 6,900 -49 Descending Indianapolis Center
Thu 09:24:04 PM 40.7386 -82.7314 49° Northeast 183 211 6,900 -98 Level Indianapolis Center
Thu 09:25:05 PM 40.7758 -82.6800 46° Northeast 189 217 6,700 -271 Descending Indianapolis Center
Thu 09:27:01 PM 40.8503 -82.5761 47° Northeast 193 222 6,100 -310 Descending Cleveland Center

Login

Don't have an account? Register now (free) for customized features, flight alerts, and more!